sensor_id;sensor_type;location;lat;lon;timestamp;P1;durP1;ratioP1;P2;durP2;ratioP2
44728;SDS011;30457;53.590;9.922;2024-02-16T00:04:14;4.55;;;2.13;;
44728;SDS011;30457;53.590;9.922;2024-02-16T00:08:40;2.88;;;2.28;;
44728;SDS011;30457;53.590;9.922;2024-02-16T00:13:06;4.03;;;2.55;;
44728;SDS011;30457;53.590;9.922;2024-02-16T00:17:31;2.72;;;2.50;;
44728;SDS011;30457;53.590;9.922;2024-02-16T00:21:58;3.25;;;2.47;;
44728;SDS011;30457;53.590;9.922;2024-02-16T00:26:24;12.18;;;2.83;;
44728;SDS011;30457;53.590;9.922;2024-02-16T00:30:50;3.08;;;2.50;;
44728;SDS011;30457;53.590;9.922;2024-02-16T00:35:16;4.68;;;2.58;;
44728;SDS011;30457;53.590;9.922;2024-02-16T00:39:42;5.72;;;2.95;;
44728;SDS011;30457;53.590;9.922;2024-02-16T00:44:08;2.55;;;2.10;;
44728;SDS011;30457;53.590;9.922;2024-02-16T00:48:33;3.78;;;2.00;;
44728;SDS011;30457;53.590;9.922;2024-02-16T00:52:59;5.13;;;2.60;;
44728;SDS011;30457;53.590;9.922;2024-02-16T00:57:25;3.78;;;2.65;;
44728;SDS011;30457;53.590;9.922;2024-02-16T01:01:50;4.30;;;1.75;;
44728;SDS011;30457;53.590;9.922;2024-02-16T01:06:16;3.50;;;2.30;;
44728;SDS011;30457;53.590;9.922;2024-02-16T01:10:41;2.47;;;2.05;;
44728;SDS011;30457;53.590;9.922;2024-02-16T01:15:07;3.53;;;2.40;;
44728;SDS011;30457;53.590;9.922;2024-02-16T01:19:33;4.80;;;2.33;;
44728;SDS011;30457;53.590;9.922;2024-02-16T01:23:59;2.65;;;1.73;;
44728;SDS011;30457;53.590;9.922;2024-02-16T01:28:26;5.65;;;1.92;;
44728;SDS011;30457;53.590;9.922;2024-02-16T01:32:51;6.47;;;2.17;;
44728;SDS011;30457;53.590;9.922;2024-02-16T01:37:17;2.33;;;1.85;;
44728;SDS011;30457;53.590;9.922;2024-02-16T01:41:42;4.90;;;2.47;;
44728;SDS011;30457;53.590;9.922;2024-02-16T01:46:08;11.57;;;2.28;;
44728;SDS011;30457;53.590;9.922;2024-02-16T01:50:33;5.50;;;1.95;;
44728;SDS011;30457;53.590;9.922;2024-02-16T01:54:59;3.00;;;2.20;;
44728;SDS011;30457;53.590;9.922;2024-02-16T01:59:28;4.35;;;2.10;;
44728;SDS011;30457;53.590;9.922;2024-02-16T02:03:54;4.10;;;1.92;;
44728;SDS011;30457;53.590;9.922;2024-02-16T02:08:20;3.35;;;1.70;;
44728;SDS011;30457;53.590;9.922;2024-02-16T02:12:45;2.30;;;1.80;;
44728;SDS011;30457;53.590;9.922;2024-02-16T02:17:11;2.92;;;2.13;;
44728;SDS011;30457;53.590;9.922;2024-02-16T02:21:36;2.10;;;1.77;;
44728;SDS011;30457;53.590;9.922;2024-02-16T02:26:02;5.15;;;1.92;;
44728;SDS011;30457;53.590;9.922;2024-02-16T02:30:28;2.65;;;1.63;;
44728;SDS011;30457;53.590;9.922;2024-02-16T02:34:53;3.35;;;1.60;;
44728;SDS011;30457;53.590;9.922;2024-02-16T02:39:19;4.30;;;1.80;;
44728;SDS011;30457;53.590;9.922;2024-02-16T02:43:45;3.38;;;1.90;;
44728;SDS011;30457;53.590;9.922;2024-02-16T02:48:11;2.10;;;1.60;;
44728;SDS011;30457;53.590;9.922;2024-02-16T02:52:37;3.50;;;1.67;;
44728;SDS011;30457;53.590;9.922;2024-02-16T02:57:02;6.70;;;2.35;;
44728;SDS011;30457;53.590;9.922;2024-02-16T03:01:28;2.67;;;1.85;;
44728;SDS011;30457;53.590;9.922;2024-02-16T03:05:54;8.07;;;1.85;;
44728;SDS011;30457;53.590;9.922;2024-02-16T03:10:19;2.45;;;1.85;;
44728;SDS011;30457;53.590;9.922;2024-02-16T03:14:47;2.50;;;2.30;;
44728;SDS011;30457;53.590;9.922;2024-02-16T03:19:12;3.83;;;1.70;;
44728;SDS011;30457;53.590;9.922;2024-02-16T03:23:38;2.10;;;1.83;;
44728;SDS011;30457;53.590;9.922;2024-02-16T03:28:03;2.45;;;1.65;;
44728;SDS011;30457;53.590;9.922;2024-02-16T03:32:29;1.67;;;1.50;;
44728;SDS011;30457;53.590;9.922;2024-02-16T03:36:56;5.57;;;1.90;;
44728;SDS011;30457;53.590;9.922;2024-02-16T03:41:23;2.72;;;1.60;;
44728;SDS011;30457;53.590;9.922;2024-02-16T03:45:49;2.53;;;1.50;;
44728;SDS011;30457;53.590;9.922;2024-02-16T03:50:14;4.85;;;1.55;;
44728;SDS011;30457;53.590;9.922;2024-02-16T03:54:40;4.88;;;1.60;;
44728;SDS011;30457;53.590;9.922;2024-02-16T03:59:08;4.82;;;1.45;;
44728;SDS011;30457;53.590;9.922;2024-02-16T04:03:35;4.43;;;1.80;;
44728;SDS011;30457;53.590;9.922;2024-02-16T04:08:01;6.50;;;1.90;;
44728;SDS011;30457;53.590;9.922;2024-02-16T04:12:28;4.38;;;1.40;;
44728;SDS011;30457;53.590;9.922;2024-02-16T04:16:54;1.75;;;1.40;;
44728;SDS011;30457;53.590;9.922;2024-02-16T04:21:22;2.85;;;1.63;;
44728;SDS011;30457;53.590;9.922;2024-02-16T04:25:48;2.65;;;1.50;;
44728;SDS011;30457;53.590;9.922;2024-02-16T04:30:14;2.65;;;1.60;;
44728;SDS011;30457;53.590;9.922;2024-02-16T04:34:39;3.30;;;1.35;;
44728;SDS011;30457;53.590;9.922;2024-02-16T04:39:05;1.92;;;1.40;;
44728;SDS011;30457;53.590;9.922;2024-02-16T04:43:30;3.47;;;1.30;;
44728;SDS011;30457;53.590;9.922;2024-02-16T04:47:56;3.15;;;1.92;;
44728;SDS011;30457;53.590;9.922;2024-02-16T04:52:22;6.22;;;1.70;;
44728;SDS011;30457;53.590;9.922;2024-02-16T04:56:48;2.85;;;1.50;;
44728;SDS011;30457;53.590;9.922;2024-02-16T05:01:14;2.83;;;1.48;;
44728;SDS011;30457;53.590;9.922;2024-02-16T05:05:39;3.97;;;2.22;;
44728;SDS011;30457;53.590;9.922;2024-02-16T05:10:08;2.35;;;1.50;;
44728;SDS011;30457;53.590;9.922;2024-02-16T05:14:35;2.17;;;1.35;;
44728;SDS011;30457;53.590;9.922;2024-02-16T05:19:01;3.90;;;1.45;;
44728;SDS011;30457;53.590;9.922;2024-02-16T05:23:27;4.50;;;1.20;;
44728;SDS011;30457;53.590;9.922;2024-02-16T05:27:52;2.58;;;1.48;;
44728;SDS011;30457;53.590;9.922;2024-02-16T05:32:18;5.90;;;2.42;;
44728;SDS011;30457;53.590;9.922;2024-02-16T05:36:43;9.07;;;1.55;;
44728;SDS011;30457;53.590;9.922;2024-02-16T05:41:09;4.80;;;2.13;;
44728;SDS011;30457;53.590;9.922;2024-02-16T05:45:36;2.22;;;1.48;;
44728;SDS011;30457;53.590;9.922;2024-02-16T05:50:01;2.10;;;1.50;;
44728;SDS011;30457;53.590;9.922;2024-02-16T05:54:27;5.70;;;1.55;;
44728;SDS011;30457;53.590;9.922;2024-02-16T05:58:53;3.72;;;1.50;;
44728;SDS011;30457;53.590;9.922;2024-02-16T06:03:18;4.35;;;1.85;;
44728;SDS011;30457;53.590;9.922;2024-02-16T06:07:44;4.55;;;1.70;;
44728;SDS011;30457;53.590;9.922;2024-02-16T06:12:09;1.75;;;1.60;;
44728;SDS011;30457;53.590;9.922;2024-02-16T06:16:37;2.20;;;1.70;;
44728;SDS011;30457;53.590;9.922;2024-02-16T06:21:04;1.63;;;1.52;;
44728;SDS011;30457;53.590;9.922;2024-02-16T06:25:29;3.85;;;2.53;;
44728;SDS011;30457;53.590;9.922;2024-02-16T06:29:55;8.43;;;1.75;;
44728;SDS011;30457;53.590;9.922;2024-02-16T06:34:20;4.90;;;1.90;;
44728;SDS011;30457;53.590;9.922;2024-02-16T06:38:46;2.00;;;1.63;;
44728;SDS011;30457;53.590;9.922;2024-02-16T06:43:11;3.47;;;1.85;;
44728;SDS011;30457;53.590;9.922;2024-02-16T06:47:37;1.55;;;1.45;;
44728;SDS011;30457;53.590;9.922;2024-02-16T06:52:03;4.28;;;1.60;;
44728;SDS011;30457;53.590;9.922;2024-02-16T06:56:31;4.22;;;1.90;;
44728;SDS011;30457;53.590;9.922;2024-02-16T07:00:56;2.80;;;1.40;;
44728;SDS011;30457;53.590;9.922;2024-02-16T07:05:28;2.20;;;1.58;;
44728;SDS011;30457;53.590;9.922;2024-02-16T07:09:53;2.58;;;1.92;;
44728;SDS011;30457;53.590;9.922;2024-02-16T07:14:20;2.45;;;1.60;;
44728;SDS011;30457;53.590;9.922;2024-02-16T07:18:45;3.35;;;1.67;;
44728;SDS011;30457;53.590;9.922;2024-02-16T07:23:11;2.53;;;1.75;;
44728;SDS011;30457;53.590;9.922;2024-02-16T07:27:37;3.50;;;1.83;;
44728;SDS011;30457;53.590;9.922;2024-02-16T07:32:03;5.60;;;2.72;;
44728;SDS011;30457;53.590;9.922;2024-02-16T07:36:29;3.08;;;1.85;;
44728;SDS011;30457;53.590;9.922;2024-02-16T07:40:55;1.85;;;1.67;;
44728;SDS011;30457;53.590;9.922;2024-02-16T07:45:21;3.83;;;2.38;;
44728;SDS011;30457;53.590;9.922;2024-02-16T07:49:47;2.90;;;1.85;;
44728;SDS011;30457;53.590;9.922;2024-02-16T07:54:12;3.25;;;2.35;;
44728;SDS011;30457;53.590;9.922;2024-02-16T07:58:40;3.78;;;1.98;;
44728;SDS011;30457;53.590;9.922;2024-02-16T08:03:07;3.40;;;1.58;;
44728;SDS011;30457;53.590;9.922;2024-02-16T08:07:33;5.78;;;1.63;;
44728;SDS011;30457;53.590;9.922;2024-02-16T08:11:58;3.40;;;2.20;;
44728;SDS011;30457;53.590;9.922;2024-02-16T08:16:24;7.20;;;2.28;;
44728;SDS011;30457;53.590;9.922;2024-02-16T08:20:51;1.90;;;1.70;;
44728;SDS011;30457;53.590;9.922;2024-02-16T08:25:17;5.28;;;2.40;;
44728;SDS011;30457;53.590;9.922;2024-02-16T08:29:43;4.07;;;1.92;;
44728;SDS011;30457;53.590;9.922;2024-02-16T08:34:08;4.18;;;1.90;;
44728;SDS011;30457;53.590;9.922;2024-02-16T08:38:36;3.88;;;1.85;;
44728;SDS011;30457;53.590;9.922;2024-02-16T08:43:02;4.57;;;1.52;;
44728;SDS011;30457;53.590;9.922;2024-02-16T08:47:28;2.85;;;1.83;;
44728;SDS011;30457;53.590;9.922;2024-02-16T08:51:53;3.13;;;1.90;;
44728;SDS011;30457;53.590;9.922;2024-02-16T08:56:19;2.10;;;1.73;;
44728;SDS011;30457;53.590;9.922;2024-02-16T09:00:45;3.25;;;1.88;;
44728;SDS011;30457;53.590;9.922;2024-02-16T09:05:11;3.08;;;1.70;;
44728;SDS011;30457;53.590;9.922;2024-02-16T09:09:36;5.47;;;1.63;;
44728;SDS011;30457;53.590;9.922;2024-02-16T09:14:02;3.20;;;2.03;;
44728;SDS011;30457;53.590;9.922;2024-02-16T09:18:29;4.20;;;2.22;;
44728;SDS011;30457;53.590;9.922;2024-02-16T09:22:55;2.30;;;2.10;;
44728;SDS011;30457;53.590;9.922;2024-02-16T09:27:21;3.33;;;1.80;;
44728;SDS011;30457;53.590;9.922;2024-02-16T09:31:49;2.10;;;1.90;;
44728;SDS011;30457;53.590;9.922;2024-02-16T09:36:17;4.28;;;1.60;;
44728;SDS011;30457;53.590;9.922;2024-02-16T09:40:43;2.95;;;1.98;;
44728;SDS011;30457;53.590;9.922;2024-02-16T09:45:09;4.45;;;1.77;;
44728;SDS011;30457;53.590;9.922;2024-02-16T09:49:37;4.25;;;1.65;;
44728;SDS011;30457;53.590;9.922;2024-02-16T09:54:02;4.70;;;1.60;;
44728;SDS011;30457;53.590;9.922;2024-02-16T09:58:28;4.57;;;1.90;;
44728;SDS011;30457;53.590;9.922;2024-02-16T10:02:54;3.60;;;2.20;;
44728;SDS011;30457;53.590;9.922;2024-02-16T10:07:30;4.88;;;1.77;;
44728;SDS011;30457;53.590;9.922;2024-02-16T10:11:56;7.03;;;2.05;;
44728;SDS011;30457;53.590;9.922;2024-02-16T10:16:22;5.53;;;2.00;;
44728;SDS011;30457;53.590;9.922;2024-02-16T10:20:48;6.32;;;1.83;;
44728;SDS011;30457;53.590;9.922;2024-02-16T10:25:13;2.88;;;1.83;;
44728;SDS011;30457;53.590;9.922;2024-02-16T10:29:39;7.72;;;2.13;;
44728;SDS011;30457;53.590;9.922;2024-02-16T10:34:07;4.22;;;2.08;;
44728;SDS011;30457;53.590;9.922;2024-02-16T10:38:34;3.22;;;1.67;;
44728;SDS011;30457;53.590;9.922;2024-02-16T10:43:02;3.83;;;1.80;;
44728;SDS011;30457;53.590;9.922;2024-02-16T10:47:30;3.70;;;1.77;;
44728;SDS011;30457;53.590;9.922;2024-02-16T10:51:56;3.72;;;1.38;;
44728;SDS011;30457;53.590;9.922;2024-02-16T10:56:32;2.47;;;1.60;;
44728;SDS011;30457;53.590;9.922;2024-02-16T11:01:07;7.80;;;1.75;;
44728;SDS011;30457;53.590;9.922;2024-02-16T11:05:41;6.32;;;1.75;;
44728;SDS011;30457;53.590;9.922;2024-02-16T11:10:12;1.85;;;1.17;;
44728;SDS011;30457;53.590;9.922;2024-02-16T11:14:39;4.30;;;1.42;;
44728;SDS011;30457;53.590;9.922;2024-02-16T11:19:06;2.20;;;1.60;;
44728;SDS011;30457;53.590;9.922;2024-02-16T11:23:34;3.83;;;1.45;;
44728;SDS011;30457;53.590;9.922;2024-02-16T11:28:01;2.58;;;1.50;;
44728;SDS011;30457;53.590;9.922;2024-02-16T11:32:31;1.63;;;1.13;;
44728;SDS011;30457;53.590;9.922;2024-02-16T11:36:59;3.22;;;1.40;;
44728;SDS011;30457;53.590;9.922;2024-02-16T11:41:29;3.63;;;1.63;;
44728;SDS011;30457;53.590;9.922;2024-02-16T11:45:55;5.32;;;1.27;;
44728;SDS011;30457;53.590;9.922;2024-02-16T11:50:21;2.53;;;1.50;;
44728;SDS011;30457;53.590;9.922;2024-02-16T11:54:47;2.42;;;1.60;;
44728;SDS011;30457;53.590;9.922;2024-02-16T11:59:13;3.10;;;1.52;;
44728;SDS011;30457;53.590;9.922;2024-02-16T12:03:40;5.03;;;1.70;;
44728;SDS011;30457;53.590;9.922;2024-02-16T12:08:07;2.70;;;1.98;;
44728;SDS011;30457;53.590;9.922;2024-02-16T12:12:32;3.00;;;1.75;;
44728;SDS011;30457;53.590;9.922;2024-02-16T12:16:58;1.83;;;1.40;;
44728;SDS011;30457;53.590;9.922;2024-02-16T12:21:24;4.13;;;2.15;;
44728;SDS011;30457;53.590;9.922;2024-02-16T12:25:49;3.33;;;1.50;;
44728;SDS011;30457;53.590;9.922;2024-02-16T12:30:15;3.30;;;2.03;;
44728;SDS011;30457;53.590;9.922;2024-02-16T12:34:41;10.65;;;2.50;;
44728;SDS011;30457;53.590;9.922;2024-02-16T12:39:06;4.00;;;2.40;;
44728;SDS011;30457;53.590;9.922;2024-02-16T12:43:34;2.75;;;1.83;;
44728;SDS011;30457;53.590;9.922;2024-02-16T12:47:59;5.68;;;3.03;;
44728;SDS011;30457;53.590;9.922;2024-02-16T12:52:25;3.75;;;2.25;;
44728;SDS011;30457;53.590;9.922;2024-02-16T12:56:50;5.90;;;2.00;;
44728;SDS011;30457;53.590;9.922;2024-02-16T13:01:16;5.75;;;2.30;;
44728;SDS011;30457;53.590;9.922;2024-02-16T13:05:45;3.85;;;2.08;;
44728;SDS011;30457;53.590;9.922;2024-02-16T13:10:11;2.92;;;1.88;;
44728;SDS011;30457;53.590;9.922;2024-02-16T13:14:37;3.97;;;2.20;;
44728;SDS011;30457;53.590;9.922;2024-02-16T13:19:02;3.40;;;2.00;;
44728;SDS011;30457;53.590;9.922;2024-02-16T13:23:28;5.57;;;2.10;;
44728;SDS011;30457;53.590;9.922;2024-02-16T13:27:56;5.95;;;2.58;;
44728;SDS011;30457;53.590;9.922;2024-02-16T13:32:21;2.95;;;2.58;;
44728;SDS011;30457;53.590;9.922;2024-02-16T13:36:47;6.53;;;2.45;;
44728;SDS011;30457;53.590;9.922;2024-02-16T13:41:13;3.47;;;2.40;;
44728;SDS011;30457;53.590;9.922;2024-02-16T13:45:52;2.97;;;2.08;;
44728;SDS011;30457;53.590;9.922;2024-02-16T13:50:19;3.40;;;2.67;;
44728;SDS011;30457;53.590;9.922;2024-02-16T13:54:44;3.28;;;2.53;;
44728;SDS011;30457;53.590;9.922;2024-02-16T13:59:10;6.93;;;2.47;;
44728;SDS011;30457;53.590;9.922;2024-02-16T14:03:35;4.95;;;2.50;;
44728;SDS011;30457;53.590;9.922;2024-02-16T14:08:01;6.15;;;3.08;;
44728;SDS011;30457;53.590;9.922;2024-02-16T14:12:27;7.30;;;3.92;;
44728;SDS011;30457;53.590;9.922;2024-02-16T14:16:52;4.15;;;2.63;;
44728;SDS011;30457;53.590;9.922;2024-02-16T14:21:18;4.97;;;2.83;;
44728;SDS011;30457;53.590;9.922;2024-02-16T14:25:44;6.05;;;2.55;;
44728;SDS011;30457;53.590;9.922;2024-02-16T14:30:13;6.70;;;2.80;;
44728;SDS011;30457;53.590;9.922;2024-02-16T14:34:39;3.70;;;3.03;;
44728;SDS011;30457;53.590;9.922;2024-02-16T14:39:06;6.63;;;3.28;;
44728;SDS011;30457;53.590;9.922;2024-02-16T14:43:33;5.10;;;3.08;;
44728;SDS011;30457;53.590;9.922;2024-02-16T14:47:59;4.88;;;3.10;;
44728;SDS011;30457;53.590;9.922;2024-02-16T14:52:24;4.95;;;3.50;;
44728;SDS011;30457;53.590;9.922;2024-02-16T14:56:51;6.90;;;4.80;;
44728;SDS011;30457;53.590;9.922;2024-02-16T15:01:17;6.45;;;3.63;;
44728;SDS011;30457;53.590;9.922;2024-02-16T15:05:43;9.23;;;4.40;;
44728;SDS011;30457;53.590;9.922;2024-02-16T15:10:09;7.55;;;3.58;;
44728;SDS011;30457;53.590;9.922;2024-02-16T15:14:35;6.70;;;3.50;;
44728;SDS011;30457;53.590;9.922;2024-02-16T15:19:02;7.30;;;3.92;;
44728;SDS011;30457;53.590;9.922;2024-02-16T15:23:27;4.80;;;3.53;;
44728;SDS011;30457;53.590;9.922;2024-02-16T15:27:53;6.60;;;4.22;;
44728;SDS011;30457;53.590;9.922;2024-02-16T15:32:20;5.70;;;3.70;;
44728;SDS011;30457;53.590;9.922;2024-02-16T15:36:46;6.13;;;4.30;;
44728;SDS011;30457;53.590;9.922;2024-02-16T15:41:11;4.68;;;3.88;;
44728;SDS011;30457;53.590;9.922;2024-02-16T15:45:38;7.13;;;4.32;;
44728;SDS011;30457;53.590;9.922;2024-02-16T15:50:07;8.70;;;4.40;;
44728;SDS011;30457;53.590;9.922;2024-02-16T15:54:34;6.25;;;3.78;;
44728;SDS011;30457;53.590;9.922;2024-02-16T15:58:59;5.65;;;4.00;;
44728;SDS011;30457;53.590;9.922;2024-02-16T16:03:25;4.35;;;3.95;;
44728;SDS011;30457;53.590;9.922;2024-02-16T16:07:51;11.48;;;3.40;;
44728;SDS011;30457;53.590;9.922;2024-02-16T16:12:17;4.47;;;3.30;;
44728;SDS011;30457;53.590;9.922;2024-02-16T16:16:42;3.15;;;2.85;;
44728;SDS011;30457;53.590;9.922;2024-02-16T16:21:09;3.35;;;2.60;;
44728;SDS011;30457;53.590;9.922;2024-02-16T16:25:34;2.47;;;2.28;;
44728;SDS011;30457;53.590;9.922;2024-02-16T16:30:00;3.22;;;2.75;;
44728;SDS011;30457;53.590;9.922;2024-02-16T16:34:26;2.55;;;2.30;;
44728;SDS011;30457;53.590;9.922;2024-02-16T16:38:54;3.72;;;2.95;;
44728;SDS011;30457;53.590;9.922;2024-02-16T16:43:20;3.38;;;3.08;;
44728;SDS011;30457;53.590;9.922;2024-02-16T16:47:45;3.50;;;2.88;;
44728;SDS011;30457;53.590;9.922;2024-02-16T16:52:12;3.78;;;2.78;;
44728;SDS011;30457;53.590;9.922;2024-02-16T16:56:37;2.58;;;2.38;;
44728;SDS011;30457;53.590;9.922;2024-02-16T17:01:03;2.00;;;1.75;;
44728;SDS011;30457;53.590;9.922;2024-02-16T17:05:29;1.85;;;1.45;;
44728;SDS011;30457;53.590;9.922;2024-02-16T17:09:56;1.48;;;1.38;;
44728;SDS011;30457;53.590;9.922;2024-02-16T17:14:22;1.17;;;0.98;;
44728;SDS011;30457;53.590;9.922;2024-02-16T17:18:49;1.23;;;0.90;;
44728;SDS011;30457;53.590;9.922;2024-02-16T17:23:15;1.10;;;1.00;;
44728;SDS011;30457;53.590;9.922;2024-02-16T17:27:40;1.85;;;1.08;;
44728;SDS011;30457;53.590;9.922;2024-02-16T17:32:06;1.70;;;1.20;;
44728;SDS011;30457;53.590;9.922;2024-02-16T17:36:32;1.20;;;1.10;;
44728;SDS011;30457;53.590;9.922;2024-02-16T17:40:57;1.27;;;1.15;;
44728;SDS011;30457;53.590;9.922;2024-02-16T17:45:24;1.10;;;1.00;;
44728;SDS011;30457;53.590;9.922;2024-02-16T17:49:49;1.60;;;1.50;;
44728;SDS011;30457;53.590;9.922;2024-02-16T17:54:15;1.40;;;1.30;;
44728;SDS011;30457;53.590;9.922;2024-02-16T17:58:41;1.55;;;1.20;;
44728;SDS011;30457;53.590;9.922;2024-02-16T18:03:06;1.08;;;1.08;;
44728;SDS011;30457;53.590;9.922;2024-02-16T18:07:32;1.10;;;1.00;;
44728;SDS011;30457;53.590;9.922;2024-02-16T18:11:57;1.38;;;1.08;;
44728;SDS011;30457;53.590;9.922;2024-02-16T18:16:23;1.10;;;1.00;;
44728;SDS011;30457;53.590;9.922;2024-02-16T18:20:51;1.17;;;1.00;;
44728;SDS011;30457;53.590;9.922;2024-02-16T18:25:17;1.05;;;0.95;;
44728;SDS011;30457;53.590;9.922;2024-02-16T18:29:43;1.45;;;1.15;;
44728;SDS011;30457;53.590;9.922;2024-02-16T18:34:08;1.10;;;1.00;;
44728;SDS011;30457;53.590;9.922;2024-02-16T18:38:34;1.05;;;0.98;;
44728;SDS011;30457;53.590;9.922;2024-02-16T18:43:01;1.20;;;1.10;;
44728;SDS011;30457;53.590;9.922;2024-02-16T18:47:28;1.50;;;1.40;;
44728;SDS011;30457;53.590;9.922;2024-02-16T18:51:54;1.65;;;1.50;;
44728;SDS011;30457;53.590;9.922;2024-02-16T18:56:19;1.40;;;1.30;;
44728;SDS011;30457;53.590;9.922;2024-02-16T19:00:45;2.55;;;1.35;;
44728;SDS011;30457;53.590;9.922;2024-02-16T19:05:10;1.40;;;1.30;;
44728;SDS011;30457;53.590;9.922;2024-02-16T19:09:36;1.65;;;1.55;;
44728;SDS011;30457;53.590;9.922;2024-02-16T19:14:02;2.08;;;1.88;;
44728;SDS011;30457;53.590;9.922;2024-02-16T19:18:28;2.42;;;1.90;;
44728;SDS011;30457;53.590;9.922;2024-02-16T19:22:53;2.22;;;1.70;;
44728;SDS011;30457;53.590;9.922;2024-02-16T19:27:19;1.92;;;1.80;;
44728;SDS011;30457;53.590;9.922;2024-02-16T19:31:45;2.10;;;1.90;;
44728;SDS011;30457;53.590;9.922;2024-02-16T19:36:11;2.20;;;2.10;;
44728;SDS011;30457;53.590;9.922;2024-02-16T19:40:37;2.47;;;2.13;;
44728;SDS011;30457;53.590;9.922;2024-02-16T19:45:03;2.42;;;2.22;;
44728;SDS011;30457;53.590;9.922;2024-02-16T19:49:30;3.85;;;2.33;;
44728;SDS011;30457;53.590;9.922;2024-02-16T19:53:56;3.13;;;2.53;;
44728;SDS011;30457;53.590;9.922;2024-02-16T19:58:22;3.20;;;2.90;;
44728;SDS011;30457;53.590;9.922;2024-02-16T20:02:48;3.65;;;2.92;;
44728;SDS011;30457;53.590;9.922;2024-02-16T20:07:17;6.75;;;3.78;;
44728;SDS011;30457;53.590;9.922;2024-02-16T20:11:42;3.15;;;2.95;;
44728;SDS011;30457;53.590;9.922;2024-02-16T20:16:08;6.03;;;3.55;;
44728;SDS011;30457;53.590;9.922;2024-02-16T20:20:35;5.28;;;3.50;;
44728;SDS011;30457;53.590;9.922;2024-02-16T20:25:00;4.35;;;3.47;;
44728;SDS011;30457;53.590;9.922;2024-02-16T20:29:26;3.90;;;3.50;;
44728;SDS011;30457;53.590;9.922;2024-02-16T20:33:53;5.50;;;3.47;;
44728;SDS011;30457;53.590;9.922;2024-02-16T20:38:19;4.55;;;4.15;;
44728;SDS011;30457;53.590;9.922;2024-02-16T20:42:45;4.45;;;3.42;;
44728;SDS011;30457;53.590;9.922;2024-02-16T20:47:11;6.05;;;4.68;;
44728;SDS011;30457;53.590;9.922;2024-02-16T20:51:36;5.80;;;4.13;;
44728;SDS011;30457;53.590;9.922;2024-02-16T20:56:02;8.00;;;5.00;;
44728;SDS011;30457;53.590;9.922;2024-02-16T21:00:27;5.05;;;4.30;;
44728;SDS011;30457;53.590;9.922;2024-02-16T21:04:53;6.13;;;4.90;;
44728;SDS011;30457;53.590;9.922;2024-02-16T21:09:19;7.85;;;4.90;;
44728;SDS011;30457;53.590;9.922;2024-02-16T21:13:44;8.43;;;4.07;;
44728;SDS011;30457;53.590;9.922;2024-02-16T21:18:10;8.45;;;5.30;;
44728;SDS011;30457;53.590;9.922;2024-02-16T21:22:36;7.05;;;4.90;;
44728;SDS011;30457;53.590;9.922;2024-02-16T21:27:01;8.55;;;4.88;;
44728;SDS011;30457;53.590;9.922;2024-02-16T21:31:27;7.10;;;4.90;;
44728;SDS011;30457;53.590;9.922;2024-02-16T21:35:52;6.35;;;4.50;;
44728;SDS011;30457;53.590;9.922;2024-02-16T21:40:21;6.95;;;4.60;;
44728;SDS011;30457;53.590;9.922;2024-02-16T21:44:48;6.90;;;5.00;;
44728;SDS011;30457;53.590;9.922;2024-02-16T21:49:13;7.60;;;4.82;;
44728;SDS011;30457;53.590;9.922;2024-02-16T21:53:40;6.72;;;4.82;;
44728;SDS011;30457;53.590;9.922;2024-02-16T21:58:06;5.45;;;4.40;;
44728;SDS011;30457;53.590;9.922;2024-02-16T22:02:31;9.50;;;5.53;;
44728;SDS011;30457;53.590;9.922;2024-02-16T22:06:58;6.25;;;4.60;;
44728;SDS011;30457;53.590;9.922;2024-02-16T22:11:24;7.43;;;4.72;;
44728;SDS011;30457;53.590;9.922;2024-02-16T22:15:51;8.75;;;4.43;;
44728;SDS011;30457;53.590;9.922;2024-02-16T22:20:16;6.25;;;4.55;;
44728;SDS011;30457;53.590;9.922;2024-02-16T22:24:42;9.00;;;4.13;;
44728;SDS011;30457;53.590;9.922;2024-02-16T22:29:08;5.65;;;4.60;;
44728;SDS011;30457;53.590;9.922;2024-02-16T22:33:35;7.82;;;4.93;;
44728;SDS011;30457;53.590;9.922;2024-02-16T22:38:04;6.95;;;4.70;;
44728;SDS011;30457;53.590;9.922;2024-02-16T22:42:31;5.68;;;4.35;;
44728;SDS011;30457;53.590;9.922;2024-02-16T22:46:58;6.07;;;4.00;;
44728;SDS011;30457;53.590;9.922;2024-02-16T22:51:25;5.13;;;3.95;;
44728;SDS011;30457;53.590;9.922;2024-02-16T22:55:51;4.75;;;3.47;;
44728;SDS011;30457;53.590;9.922;2024-02-16T23:00:18;6.10;;;4.07;;
44728;SDS011;30457;53.590;9.922;2024-02-16T23:04:50;5.43;;;3.60;;
44728;SDS011;30457;53.590;9.922;2024-02-16T23:09:16;4.45;;;3.10;;
44728;SDS011;30457;53.590;9.922;2024-02-16T23:13:42;8.13;;;4.07;;
44728;SDS011;30457;53.590;9.922;2024-02-16T23:18:07;6.15;;;3.65;;
44728;SDS011;30457;53.590;9.922;2024-02-16T23:22:33;6.22;;;3.95;;
44728;SDS011;30457;53.590;9.922;2024-02-16T23:26:58;4.25;;;2.97;;
44728;SDS011;30457;53.590;9.922;2024-02-16T23:31:24;5.43;;;3.72;;
44728;SDS011;30457;53.590;9.922;2024-02-16T23:35:49;6.22;;;4.00;;
44728;SDS011;30457;53.590;9.922;2024-02-16T23:40:15;6.88;;;4.70;;
44728;SDS011;30457;53.590;9.922;2024-02-16T23:44:41;5.68;;;4.60;;
44728;SDS011;30457;53.590;9.922;2024-02-16T23:49:07;7.97;;;4.82;;
44728;SDS011;30457;53.590;9.922;2024-02-16T23:53:33;9.80;;;5.32;;
44728;SDS011;30457;53.590;9.922;2024-02-16T23:57:58;12.00;;;5.85;;
